sensor_id;sensor_type;location;lat;lon;timestamp;P1;durP1;ratioP1;P2;durP2;ratioP2
21624;SDS011;10974;51.034;3.744;2022-07-15T00:00:30;2.87;;;1.30;;
21624;SDS011;10974;51.034;3.744;2022-07-15T00:02:57;2.20;;;1.10;;
21624;SDS011;10974;51.034;3.744;2022-07-15T00:05:23;1.33;;;1.10;;
21624;SDS011;10974;51.034;3.744;2022-07-15T00:07:50;2.00;;;1.20;;
21624;SDS011;10974;51.034;3.744;2022-07-15T00:10:16;1.00;;;0.90;;
21624;SDS011;10974;51.034;3.744;2022-07-15T00:12:49;1.00;;;0.90;;
21624;SDS011;10974;51.034;3.744;2022-07-15T00:15:17;1.40;;;1.13;;
21624;SDS011;10974;51.034;3.744;2022-07-15T00:17:44;1.13;;;0.90;;
21624;SDS011;10974;51.034;3.744;2022-07-15T00:20:11;0.97;;;0.90;;
21624;SDS011;10974;51.034;3.744;2022-07-15T00:22:37;1.57;;;0.97;;
21624;SDS011;10974;51.034;3.744;2022-07-15T00:25:04;2.10;;;1.03;;
21624;SDS011;10974;51.034;3.744;2022-07-15T00:27:29;1.20;;;1.10;;
21624;SDS011;10974;51.034;3.744;2022-07-15T00:29:55;1.63;;;1.17;;
21624;SDS011;10974;51.034;3.744;2022-07-15T00:32:21;1.07;;;0.97;;
21624;SDS011;10974;51.034;3.744;2022-07-15T00:34:47;0.93;;;0.93;;
21624;SDS011;10974;51.034;3.744;2022-07-15T00:37:13;1.10;;;1.00;;
21624;SDS011;10974;51.034;3.744;2022-07-15T00:39:39;1.63;;;1.00;;
21624;SDS011;10974;51.034;3.744;2022-07-15T00:42:05;1.40;;;1.00;;
21624;SDS011;10974;51.034;3.744;2022-07-15T00:44:30;3.27;;;1.07;;
21624;SDS011;10974;51.034;3.744;2022-07-15T00:46:56;1.90;;;1.10;;
21624;SDS011;10974;51.034;3.744;2022-07-15T00:49:25;1.20;;;1.10;;
21624;SDS011;10974;51.034;3.744;2022-07-15T00:51:51;1.17;;;0.93;;
21624;SDS011;10974;51.034;3.744;2022-07-15T00:54:25;1.43;;;0.90;;
21624;SDS011;10974;51.034;3.744;2022-07-15T00:56:55;1.23;;;0.90;;
21624;SDS011;10974;51.034;3.744;2022-07-15T00:59:22;1.00;;;0.80;;
21624;SDS011;10974;51.034;3.744;2022-07-15T01:01:51;1.10;;;0.90;;
21624;SDS011;10974;51.034;3.744;2022-07-15T01:04:18;1.40;;;1.30;;
21624;SDS011;10974;51.034;3.744;2022-07-15T01:06:48;1.37;;;1.00;;
21624;SDS011;10974;51.034;3.744;2022-07-15T01:09:14;1.50;;;1.27;;
21624;SDS011;10974;51.034;3.744;2022-07-15T01:11:40;1.53;;;1.00;;
21624;SDS011;10974;51.034;3.744;2022-07-15T01:14:06;1.27;;;1.17;;
21624;SDS011;10974;51.034;3.744;2022-07-15T01:16:32;2.10;;;1.10;;
21624;SDS011;10974;51.034;3.744;2022-07-15T01:18:57;1.57;;;1.10;;
21624;SDS011;10974;51.034;3.744;2022-07-15T01:21:23;0.80;;;0.80;;
21624;SDS011;10974;51.034;3.744;2022-07-15T01:23:49;1.03;;;0.90;;
21624;SDS011;10974;51.034;3.744;2022-07-15T01:26:15;1.97;;;1.30;;
21624;SDS011;10974;51.034;3.744;2022-07-15T01:28:41;0.80;;;0.80;;
21624;SDS011;10974;51.034;3.744;2022-07-15T01:31:08;1.00;;;0.90;;
21624;SDS011;10974;51.034;3.744;2022-07-15T01:33:34;0.80;;;0.80;;
21624;SDS011;10974;51.034;3.744;2022-07-15T01:36:00;1.57;;;1.00;;
21624;SDS011;10974;51.034;3.744;2022-07-15T01:38:27;1.20;;;1.00;;
21624;SDS011;10974;51.034;3.744;2022-07-15T01:40:53;1.67;;;1.10;;
21624;SDS011;10974;51.034;3.744;2022-07-15T01:43:20;1.23;;;1.10;;
21624;SDS011;10974;51.034;3.744;2022-07-15T01:45:46;1.10;;;1.00;;
21624;SDS011;10974;51.034;3.744;2022-07-15T01:48:12;0.80;;;0.80;;
21624;SDS011;10974;51.034;3.744;2022-07-15T01:50:57;1.30;;;1.03;;
21624;SDS011;10974;51.034;3.744;2022-07-15T01:53:28;0.80;;;0.80;;
21624;SDS011;10974;51.034;3.744;2022-07-15T01:55:54;1.03;;;0.93;;
21624;SDS011;10974;51.034;3.744;2022-07-15T01:58:20;1.20;;;1.00;;
21624;SDS011;10974;51.034;3.744;2022-07-15T02:00:45;0.90;;;0.90;;
21624;SDS011;10974;51.034;3.744;2022-07-15T02:03:11;1.40;;;1.03;;
21624;SDS011;10974;51.034;3.744;2022-07-15T02:05:37;1.53;;;1.03;;
21624;SDS011;10974;51.034;3.744;2022-07-15T02:08:03;1.00;;;0.90;;
21624;SDS011;10974;51.034;3.744;2022-07-15T02:10:29;1.27;;;0.97;;
21624;SDS011;10974;51.034;3.744;2022-07-15T02:13:13;1.03;;;0.87;;
21624;SDS011;10974;51.034;3.744;2022-07-15T02:15:39;0.90;;;0.90;;
21624;SDS011;10974;51.034;3.744;2022-07-15T02:18:06;1.10;;;0.90;;
21624;SDS011;10974;51.034;3.744;2022-07-15T02:20:32;1.20;;;1.00;;
21624;SDS011;10974;51.034;3.744;2022-07-15T02:22:59;1.43;;;0.87;;
21624;SDS011;10974;51.034;3.744;2022-07-15T02:25:27;1.13;;;0.97;;
21624;SDS011;10974;51.034;3.744;2022-07-15T02:27:55;1.10;;;0.83;;
21624;SDS011;10974;51.034;3.744;2022-07-15T02:30:32;1.33;;;1.07;;
21624;SDS011;10974;51.034;3.744;2022-07-15T02:32:59;1.00;;;1.00;;
21624;SDS011;10974;51.034;3.744;2022-07-15T02:35:25;1.17;;;1.00;;
21624;SDS011;10974;51.034;3.744;2022-07-15T02:37:51;1.20;;;0.80;;
21624;SDS011;10974;51.034;3.744;2022-07-15T02:40:18;0.90;;;0.90;;
21624;SDS011;10974;51.034;3.744;2022-07-15T02:42:50;1.10;;;1.00;;
21624;SDS011;10974;51.034;3.744;2022-07-15T02:45:18;1.17;;;0.90;;
21624;SDS011;10974;51.034;3.744;2022-07-15T02:47:45;1.30;;;0.97;;
21624;SDS011;10974;51.034;3.744;2022-07-15T02:50:11;1.07;;;0.90;;
21624;SDS011;10974;51.034;3.744;2022-07-15T02:52:37;2.00;;;0.80;;
21624;SDS011;10974;51.034;3.744;2022-07-15T02:55:04;1.37;;;1.00;;
21624;SDS011;10974;51.034;3.744;2022-07-15T02:57:30;1.23;;;1.10;;
21624;SDS011;10974;51.034;3.744;2022-07-15T02:59:56;1.23;;;1.07;;
21624;SDS011;10974;51.034;3.744;2022-07-15T03:02:21;1.00;;;0.90;;
21624;SDS011;10974;51.034;3.744;2022-07-15T03:04:47;1.57;;;1.03;;
21624;SDS011;10974;51.034;3.744;2022-07-15T03:07:13;0.80;;;0.70;;
21624;SDS011;10974;51.034;3.744;2022-07-15T03:09:39;1.20;;;0.87;;
21624;SDS011;10974;51.034;3.744;2022-07-15T03:12:05;1.93;;;1.03;;
21624;SDS011;10974;51.034;3.744;2022-07-15T03:14:31;1.07;;;0.97;;
21624;SDS011;10974;51.034;3.744;2022-07-15T03:16:57;1.63;;;1.03;;
21624;SDS011;10974;51.034;3.744;2022-07-15T03:19:23;1.20;;;1.03;;
21624;SDS011;10974;51.034;3.744;2022-07-15T03:21:49;1.07;;;0.97;;
21624;SDS011;10974;51.034;3.744;2022-07-15T03:24:15;0.77;;;0.77;;
21624;SDS011;10974;51.034;3.744;2022-07-15T03:26:41;1.10;;;1.00;;
21624;SDS011;10974;51.034;3.744;2022-07-15T03:29:07;1.10;;;1.00;;
21624;SDS011;10974;51.034;3.744;2022-07-15T03:31:33;1.70;;;0.97;;
21624;SDS011;10974;51.034;3.744;2022-07-15T03:33:59;2.40;;;1.10;;
21624;SDS011;10974;51.034;3.744;2022-07-15T03:36:24;1.17;;;0.80;;
21624;SDS011;10974;51.034;3.744;2022-07-15T03:38:50;1.17;;;0.97;;
21624;SDS011;10974;51.034;3.744;2022-07-15T03:41:17;1.20;;;1.10;;
21624;SDS011;10974;51.034;3.744;2022-07-15T03:43:43;1.30;;;1.00;;
21624;SDS011;10974;51.034;3.744;2022-07-15T03:46:09;1.77;;;1.10;;
21624;SDS011;10974;51.034;3.744;2022-07-15T03:48:35;3.27;;;1.33;;
21624;SDS011;10974;51.034;3.744;2022-07-15T03:51:01;1.30;;;1.20;;
21624;SDS011;10974;51.034;3.744;2022-07-15T03:53:27;0.87;;;0.87;;
21624;SDS011;10974;51.034;3.744;2022-07-15T03:55:52;1.40;;;1.30;;
21624;SDS011;10974;51.034;3.744;2022-07-15T03:58:18;1.70;;;1.40;;
21624;SDS011;10974;51.034;3.744;2022-07-15T04:00:44;1.93;;;1.30;;
21624;SDS011;10974;51.034;3.744;2022-07-15T04:03:09;2.13;;;1.00;;
21624;SDS011;10974;51.034;3.744;2022-07-15T04:05:35;1.37;;;1.20;;
21624;SDS011;10974;51.034;3.744;2022-07-15T04:08:01;1.77;;;1.10;;
21624;SDS011;10974;51.034;3.744;2022-07-15T04:10:27;1.63;;;1.10;;
21624;SDS011;10974;51.034;3.744;2022-07-15T04:12:52;1.63;;;1.10;;
21624;SDS011;10974;51.034;3.744;2022-07-15T04:15:18;1.93;;;1.20;;
21624;SDS011;10974;51.034;3.744;2022-07-15T04:17:44;2.47;;;1.13;;
21624;SDS011;10974;51.034;3.744;2022-07-15T04:20:10;1.17;;;1.07;;
21624;SDS011;10974;51.034;3.744;2022-07-15T04:22:40;1.50;;;1.13;;
21624;SDS011;10974;51.034;3.744;2022-07-15T04:25:07;2.07;;;1.70;;
21624;SDS011;10974;51.034;3.744;2022-07-15T04:27:35;1.20;;;1.10;;
21624;SDS011;10974;51.034;3.744;2022-07-15T04:30:01;1.17;;;1.07;;
21624;SDS011;10974;51.034;3.744;2022-07-15T04:32:27;1.00;;;0.90;;
21624;SDS011;10974;51.034;3.744;2022-07-15T04:34:53;2.07;;;1.13;;
21624;SDS011;10974;51.034;3.744;2022-07-15T04:37:19;1.40;;;1.00;;
21624;SDS011;10974;51.034;3.744;2022-07-15T04:39:46;1.90;;;1.20;;
21624;SDS011;10974;51.034;3.744;2022-07-15T04:42:12;2.20;;;1.10;;
21624;SDS011;10974;51.034;3.744;2022-07-15T04:44:39;1.37;;;1.27;;
21624;SDS011;10974;51.034;3.744;2022-07-15T04:47:04;1.43;;;1.23;;
21624;SDS011;10974;51.034;3.744;2022-07-15T04:49:30;1.00;;;1.00;;
21624;SDS011;10974;51.034;3.744;2022-07-15T04:52:15;1.27;;;1.00;;
21624;SDS011;10974;51.034;3.744;2022-07-15T04:54:40;1.37;;;1.20;;
21624;SDS011;10974;51.034;3.744;2022-07-15T04:57:06;2.00;;;1.30;;
21624;SDS011;10974;51.034;3.744;2022-07-15T04:59:32;1.43;;;0.90;;
21624;SDS011;10974;51.034;3.744;2022-07-15T05:01:58;2.47;;;1.20;;
21624;SDS011;10974;51.034;3.744;2022-07-15T05:04:24;1.20;;;1.00;;
21624;SDS011;10974;51.034;3.744;2022-07-15T05:06:49;1.30;;;1.10;;
21624;SDS011;10974;51.034;3.744;2022-07-15T05:09:15;0.93;;;0.90;;
21624;SDS011;10974;51.034;3.744;2022-07-15T05:11:41;1.53;;;1.20;;
21624;SDS011;10974;51.034;3.744;2022-07-15T05:14:07;1.77;;;1.30;;
21624;SDS011;10974;51.034;3.744;2022-07-15T05:16:32;1.00;;;0.90;;
21624;SDS011;10974;51.034;3.744;2022-07-15T05:18:58;1.03;;;0.93;;
21624;SDS011;10974;51.034;3.744;2022-07-15T05:21:23;1.13;;;1.03;;
21624;SDS011;10974;51.034;3.744;2022-07-15T05:23:49;4.33;;;1.10;;
21624;SDS011;10974;51.034;3.744;2022-07-15T05:26:15;0.90;;;0.90;;
21624;SDS011;10974;51.034;3.744;2022-07-15T05:28:40;0.90;;;0.90;;
21624;SDS011;10974;51.034;3.744;2022-07-15T05:31:06;0.80;;;0.80;;
21624;SDS011;10974;51.034;3.744;2022-07-15T05:33:32;1.80;;;1.10;;
21624;SDS011;10974;51.034;3.744;2022-07-15T05:35:58;1.23;;;1.03;;
21624;SDS011;10974;51.034;3.744;2022-07-15T05:38:24;1.03;;;0.90;;
21624;SDS011;10974;51.034;3.744;2022-07-15T05:40:50;0.90;;;0.80;;
21624;SDS011;10974;51.034;3.744;2022-07-15T05:43:16;1.10;;;1.00;;
21624;SDS011;10974;51.034;3.744;2022-07-15T05:45:41;1.90;;;1.10;;
21624;SDS011;10974;51.034;3.744;2022-07-15T05:48:07;1.30;;;0.93;;
21624;SDS011;10974;51.034;3.744;2022-07-15T05:50:33;1.03;;;0.90;;
21624;SDS011;10974;51.034;3.744;2022-07-15T05:52:59;1.37;;;1.20;;
21624;SDS011;10974;51.034;3.744;2022-07-15T05:55:25;0.93;;;0.87;;
21624;SDS011;10974;51.034;3.744;2022-07-15T05:57:51;2.87;;;1.37;;
21624;SDS011;10974;51.034;3.744;2022-07-15T06:00:16;2.57;;;1.70;;
21624;SDS011;10974;51.034;3.744;2022-07-15T06:02:42;2.20;;;1.57;;
21624;SDS011;10974;51.034;3.744;2022-07-15T06:05:08;2.03;;;1.87;;
21624;SDS011;10974;51.034;3.744;2022-07-15T06:07:35;3.53;;;1.70;;
21624;SDS011;10974;51.034;3.744;2022-07-15T06:10:01;3.23;;;1.50;;
21624;SDS011;10974;51.034;3.744;2022-07-15T06:12:30;2.70;;;1.70;;
21624;SDS011;10974;51.034;3.744;2022-07-15T06:14:56;1.83;;;1.50;;
21624;SDS011;10974;51.034;3.744;2022-07-15T06:17:21;2.07;;;1.87;;
21624;SDS011;10974;51.034;3.744;2022-07-15T06:19:47;1.63;;;1.40;;
21624;SDS011;10974;51.034;3.744;2022-07-15T06:22:13;2.40;;;1.40;;
21624;SDS011;10974;51.034;3.744;2022-07-15T06:24:39;1.90;;;1.33;;
21624;SDS011;10974;51.034;3.744;2022-07-15T06:27:04;2.20;;;1.80;;
21624;SDS011;10974;51.034;3.744;2022-07-15T06:29:30;3.60;;;1.73;;
21624;SDS011;10974;51.034;3.744;2022-07-15T06:31:57;2.53;;;1.87;;
21624;SDS011;10974;51.034;3.744;2022-07-15T06:34:23;2.40;;;1.67;;
21624;SDS011;10974;51.034;3.744;2022-07-15T06:36:49;3.30;;;1.50;;
21624;SDS011;10974;51.034;3.744;2022-07-15T06:39:16;2.23;;;1.40;;
21624;SDS011;10974;51.034;3.744;2022-07-15T06:41:42;1.83;;;1.40;;
21624;SDS011;10974;51.034;3.744;2022-07-15T06:44:07;2.10;;;1.30;;
21624;SDS011;10974;51.034;3.744;2022-07-15T06:46:33;1.63;;;1.37;;
21624;SDS011;10974;51.034;3.744;2022-07-15T06:48:59;1.63;;;1.30;;
21624;SDS011;10974;51.034;3.744;2022-07-15T06:51:25;2.20;;;1.30;;
21624;SDS011;10974;51.034;3.744;2022-07-15T06:53:50;1.53;;;1.23;;
21624;SDS011;10974;51.034;3.744;2022-07-15T06:56:16;2.00;;;1.63;;
21624;SDS011;10974;51.034;3.744;2022-07-15T06:58:42;1.40;;;1.30;;
21624;SDS011;10974;51.034;3.744;2022-07-15T07:01:08;1.63;;;1.47;;
21624;SDS011;10974;51.034;3.744;2022-07-15T07:03:34;1.57;;;1.10;;
21624;SDS011;10974;51.034;3.744;2022-07-15T07:06:00;1.40;;;1.30;;
21624;SDS011;10974;51.034;3.744;2022-07-15T07:08:25;1.77;;;1.20;;
21624;SDS011;10974;51.034;3.744;2022-07-15T07:10:52;1.20;;;1.03;;
21624;SDS011;10974;51.034;3.744;2022-07-15T07:13:18;1.20;;;1.10;;
21624;SDS011;10974;51.034;3.744;2022-07-15T07:15:44;2.07;;;1.30;;
21624;SDS011;10974;51.034;3.744;2022-07-15T07:18:10;2.20;;;1.30;;
21624;SDS011;10974;51.034;3.744;2022-07-15T07:20:36;1.10;;;1.00;;
21624;SDS011;10974;51.034;3.744;2022-07-15T07:23:02;1.70;;;1.50;;
21624;SDS011;10974;51.034;3.744;2022-07-15T07:25:28;1.90;;;1.20;;
21624;SDS011;10974;51.034;3.744;2022-07-15T07:27:53;3.10;;;1.00;;
21624;SDS011;10974;51.034;3.744;2022-07-15T07:30:19;1.17;;;1.00;;
21624;SDS011;10974;51.034;3.744;2022-07-15T07:32:45;2.70;;;1.20;;
21624;SDS011;10974;51.034;3.744;2022-07-15T07:35:10;1.00;;;1.00;;
21624;SDS011;10974;51.034;3.744;2022-07-15T07:37:36;1.20;;;1.10;;
21624;SDS011;10974;51.034;3.744;2022-07-15T07:40:04;2.50;;;1.40;;
21624;SDS011;10974;51.034;3.744;2022-07-15T07:42:31;1.90;;;1.33;;
21624;SDS011;10974;51.034;3.744;2022-07-15T07:44:56;1.90;;;1.10;;
21624;SDS011;10974;51.034;3.744;2022-07-15T07:47:24;1.00;;;0.90;;
21624;SDS011;10974;51.034;3.744;2022-07-15T07:49:50;1.43;;;1.30;;
21624;SDS011;10974;51.034;3.744;2022-07-15T07:52:16;1.60;;;1.33;;
21624;SDS011;10974;51.034;3.744;2022-07-15T07:54:42;1.20;;;1.00;;
21624;SDS011;10974;51.034;3.744;2022-07-15T07:57:09;1.43;;;1.33;;
21624;SDS011;10974;51.034;3.744;2022-07-15T07:59:35;2.10;;;1.33;;
21624;SDS011;10974;51.034;3.744;2022-07-15T08:02:01;1.43;;;1.30;;
21624;SDS011;10974;51.034;3.744;2022-07-15T08:04:29;1.00;;;1.00;;
21624;SDS011;10974;51.034;3.744;2022-07-15T08:06:55;1.23;;;1.10;;
21624;SDS011;10974;51.034;3.744;2022-07-15T08:09:22;1.23;;;1.13;;
21624;SDS011;10974;51.034;3.744;2022-07-15T08:11:47;1.00;;;0.90;;
21624;SDS011;10974;51.034;3.744;2022-07-15T08:14:13;1.20;;;1.00;;
21624;SDS011;10974;51.034;3.744;2022-07-15T08:16:39;3.27;;;1.50;;
21624;SDS011;10974;51.034;3.744;2022-07-15T08:19:08;1.57;;;1.03;;
21624;SDS011;10974;51.034;3.744;2022-07-15T08:21:33;1.00;;;0.90;;
21624;SDS011;10974;51.034;3.744;2022-07-15T08:23:59;2.90;;;1.13;;
21624;SDS011;10974;51.034;3.744;2022-07-15T08:26:25;1.80;;;0.90;;
21624;SDS011;10974;51.034;3.744;2022-07-15T08:28:51;1.50;;;1.07;;
21624;SDS011;10974;51.034;3.744;2022-07-15T08:31:17;1.77;;;1.20;;
21624;SDS011;10974;51.034;3.744;2022-07-15T08:33:44;1.10;;;1.00;;
21624;SDS011;10974;51.034;3.744;2022-07-15T08:36:10;1.13;;;1.00;;
21624;SDS011;10974;51.034;3.744;2022-07-15T08:38:37;1.30;;;1.10;;
21624;SDS011;10974;51.034;3.744;2022-07-15T08:41:03;1.30;;;1.20;;
21624;SDS011;10974;51.034;3.744;2022-07-15T08:43:28;1.13;;;0.90;;
21624;SDS011;10974;51.034;3.744;2022-07-15T08:45:55;1.13;;;0.90;;
21624;SDS011;10974;51.034;3.744;2022-07-15T08:48:23;0.93;;;0.90;;
21624;SDS011;10974;51.034;3.744;2022-07-15T08:50:54;2.17;;;1.10;;
21624;SDS011;10974;51.034;3.744;2022-07-15T08:53:21;1.33;;;0.90;;
21624;SDS011;10974;51.034;3.744;2022-07-15T08:55:47;1.30;;;1.20;;
21624;SDS011;10974;51.034;3.744;2022-07-15T08:58:13;1.00;;;0.90;;
21624;SDS011;10974;51.034;3.744;2022-07-15T09:00:39;5.70;;;1.50;;
21624;SDS011;10974;51.034;3.744;2022-07-15T09:03:04;2.60;;;1.17;;
21624;SDS011;10974;51.034;3.744;2022-07-15T09:05:32;1.40;;;1.27;;
21624;SDS011;10974;51.034;3.744;2022-07-15T09:08:03;2.10;;;1.00;;
21624;SDS011;10974;51.034;3.744;2022-07-15T09:13:22;1.93;;;1.30;;
21624;SDS011;10974;51.034;3.744;2022-07-15T09:15:49;1.50;;;1.20;;
21624;SDS011;10974;51.034;3.744;2022-07-15T09:18:15;1.43;;;0.90;;
21624;SDS011;10974;51.034;3.744;2022-07-15T09:20:44;1.13;;;0.90;;
21624;SDS011;10974;51.034;3.744;2022-07-15T09:23:11;1.37;;;1.00;;
21624;SDS011;10974;51.034;3.744;2022-07-15T09:25:43;0.97;;;0.97;;
21624;SDS011;10974;51.034;3.744;2022-07-15T09:28:09;0.90;;;0.90;;
21624;SDS011;10974;51.034;3.744;2022-07-15T09:30:36;1.43;;;0.90;;
21624;SDS011;10974;51.034;3.744;2022-07-15T09:33:23;0.80;;;0.80;;
21624;SDS011;10974;51.034;3.744;2022-07-15T09:36:20;1.20;;;1.10;;
21624;SDS011;10974;51.034;3.744;2022-07-15T09:43:56;0.90;;;0.90;;
21624;SDS011;10974;51.034;3.744;2022-07-15T09:46:43;0.90;;;0.90;;
21624;SDS011;10974;51.034;3.744;2022-07-15T09:51:52;1.33;;;0.97;;
21624;SDS011;10974;51.034;3.744;2022-07-15T09:54:20;1.30;;;1.10;;
21624;SDS011;10974;51.034;3.744;2022-07-15T09:56:48;1.10;;;1.00;;
21624;SDS011;10974;51.034;3.744;2022-07-15T09:59:15;1.00;;;1.00;;
21624;SDS011;10974;51.034;3.744;2022-07-15T10:01:42;1.67;;;0.80;;
21624;SDS011;10974;51.034;3.744;2022-07-15T10:04:09;1.13;;;0.90;;
21624;SDS011;10974;51.034;3.744;2022-07-15T10:06:36;1.20;;;1.00;;
21624;SDS011;10974;51.034;3.744;2022-07-15T10:09:06;1.10;;;0.90;;
21624;SDS011;10974;51.034;3.744;2022-07-15T10:11:35;0.80;;;0.80;;
21624;SDS011;10974;51.034;3.744;2022-07-15T10:27:50;0.80;;;0.80;;
21624;SDS011;10974;51.034;3.744;2022-07-15T10:30:34;0.70;;;0.70;;
21624;SDS011;10974;51.034;3.744;2022-07-15T10:35:39;0.80;;;0.70;;
21624;SDS011;10974;51.034;3.744;2022-07-15T10:48:46;0.70;;;0.70;;
21624;SDS011;10974;51.034;3.744;2022-07-15T10:51:12;0.60;;;0.60;;
21624;SDS011;10974;51.034;3.744;2022-07-15T10:53:58;0.70;;;0.70;;
21624;SDS011;10974;51.034;3.744;2022-07-15T10:56:34;0.80;;;0.80;;
21624;SDS011;10974;51.034;3.744;2022-07-15T11:01:47;1.37;;;0.67;;
21624;SDS011;10974;51.034;3.744;2022-07-15T11:04:20;0.80;;;0.80;;
21624;SDS011;10974;51.034;3.744;2022-07-15T11:15:13;0.80;;;0.80;;
21624;SDS011;10974;51.034;3.744;2022-07-15T11:17:47;0.80;;;0.80;;
21624;SDS011;10974;51.034;3.744;2022-07-15T11:20:17;0.60;;;0.60;;
21624;SDS011;10974;51.034;3.744;2022-07-15T11:22:45;0.70;;;0.70;;
21624;SDS011;10974;51.034;3.744;2022-07-15T11:25:16;0.70;;;0.70;;
21624;SDS011;10974;51.034;3.744;2022-07-15T11:27:55;0.60;;;0.60;;
21624;SDS011;10974;51.034;3.744;2022-07-15T11:30:28;0.60;;;0.60;;
21624;SDS011;10974;51.034;3.744;2022-07-15T11:33:01;0.70;;;0.70;;
21624;SDS011;10974;51.034;3.744;2022-07-15T11:35:28;0.60;;;0.60;;
21624;SDS011;10974;51.034;3.744;2022-07-15T11:37:58;0.60;;;0.60;;
21624;SDS011;10974;51.034;3.744;2022-07-15T11:40:25;0.70;;;0.70;;
21624;SDS011;10974;51.034;3.744;2022-07-15T11:43:15;0.70;;;0.70;;
21624;SDS011;10974;51.034;3.744;2022-07-15T11:46:01;0.60;;;0.60;;
21624;SDS011;10974;51.034;3.744;2022-07-15T11:48:33;0.70;;;0.70;;
21624;SDS011;10974;51.034;3.744;2022-07-15T11:51:03;0.70;;;0.70;;
21624;SDS011;10974;51.034;3.744;2022-07-15T11:53:33;0.70;;;0.70;;
21624;SDS011;10974;51.034;3.744;2022-07-15T11:56:01;1.07;;;0.80;;
21624;SDS011;10974;51.034;3.744;2022-07-15T11:58:37;0.70;;;0.70;;
21624;SDS011;10974;51.034;3.744;2022-07-15T12:01:05;0.80;;;0.63;;
21624;SDS011;10974;51.034;3.744;2022-07-15T12:03:34;2.17;;;0.70;;
21624;SDS011;10974;51.034;3.744;2022-07-15T12:06:12;0.73;;;0.70;;
21624;SDS011;10974;51.034;3.744;2022-07-15T12:08:43;2.13;;;0.70;;
21624;SDS011;10974;51.034;3.744;2022-07-15T12:11:21;0.80;;;0.80;;
21624;SDS011;10974;51.034;3.744;2022-07-15T12:13:59;1.43;;;0.77;;
21624;SDS011;10974;51.034;3.744;2022-07-15T12:16:29;0.60;;;0.60;;
21624;SDS011;10974;51.034;3.744;2022-07-15T12:19:07;0.90;;;0.90;;
21624;SDS011;10974;51.034;3.744;2022-07-15T12:21:37;0.70;;;0.70;;
21624;SDS011;10974;51.034;3.744;2022-07-15T12:24:06;0.77;;;0.77;;
21624;SDS011;10974;51.034;3.744;2022-07-15T12:26:39;1.20;;;0.80;;
21624;SDS011;10974;51.034;3.744;2022-07-15T12:29:20;0.70;;;0.70;;
21624;SDS011;10974;51.034;3.744;2022-07-15T12:31:55;0.80;;;0.80;;
21624;SDS011;10974;51.034;3.744;2022-07-15T12:37:12;0.77;;;0.77;;
21624;SDS011;10974;51.034;3.744;2022-07-15T12:40:05;0.80;;;0.70;;
21624;SDS011;10974;51.034;3.744;2022-07-15T12:42:43;1.10;;;0.90;;
21624;SDS011;10974;51.034;3.744;2022-07-15T12:50:27;1.90;;;0.80;;
21624;SDS011;10974;51.034;3.744;2022-07-15T12:52:58;0.70;;;0.70;;
21624;SDS011;10974;51.034;3.744;2022-07-15T12:55:25;0.80;;;0.70;;
21624;SDS011;10974;51.034;3.744;2022-07-15T12:58:14;0.70;;;0.70;;
21624;SDS011;10974;51.034;3.744;2022-07-15T13:00:40;0.70;;;0.70;;
21624;SDS011;10974;51.034;3.744;2022-07-15T13:03:08;0.70;;;0.70;;
21624;SDS011;10974;51.034;3.744;2022-07-15T13:08:11;0.70;;;0.70;;
21624;SDS011;10974;51.034;3.744;2022-07-15T13:10:39;0.80;;;0.80;;
21624;SDS011;10974;51.034;3.744;2022-07-15T13:13:06;0.70;;;0.70;;
21624;SDS011;10974;51.034;3.744;2022-07-15T13:15:34;0.70;;;0.70;;
21624;SDS011;10974;51.034;3.744;2022-07-15T13:18:00;0.87;;;0.87;;
21624;SDS011;10974;51.034;3.744;2022-07-15T13:20:26;0.87;;;0.70;;
21624;SDS011;10974;51.034;3.744;2022-07-15T13:22:52;0.70;;;0.70;;
21624;SDS011;10974;51.034;3.744;2022-07-15T13:25:18;1.00;;;0.90;;
21624;SDS011;10974;51.034;3.744;2022-07-15T13:27:44;0.60;;;0.60;;
21624;SDS011;10974;51.034;3.744;2022-07-15T13:30:10;1.00;;;0.90;;
21624;SDS011;10974;51.034;3.744;2022-07-15T13:32:36;0.60;;;0.60;;
21624;SDS011;10974;51.034;3.744;2022-07-15T13:35:03;0.60;;;0.60;;
21624;SDS011;10974;51.034;3.744;2022-07-15T13:37:30;0.67;;;0.67;;
21624;SDS011;10974;51.034;3.744;2022-07-15T13:39:56;0.67;;;0.67;;
21624;SDS011;10974;51.034;3.744;2022-07-15T13:42:21;0.60;;;0.60;;
21624;SDS011;10974;51.034;3.744;2022-07-15T13:44:50;0.77;;;0.60;;
21624;SDS011;10974;51.034;3.744;2022-07-15T13:47:16;0.67;;;0.60;;
21624;SDS011;10974;51.034;3.744;2022-07-15T13:49:42;0.70;;;0.70;;
21624;SDS011;10974;51.034;3.744;2022-07-15T13:52:26;0.60;;;0.60;;
21624;SDS011;10974;51.034;3.744;2022-07-15T13:54:52;0.50;;;0.50;;
21624;SDS011;10974;51.034;3.744;2022-07-15T13:57:18;0.60;;;0.60;;
21624;SDS011;10974;51.034;3.744;2022-07-15T13:59:43;0.70;;;0.70;;
21624;SDS011;10974;51.034;3.744;2022-07-15T14:02:09;0.70;;;0.70;;
21624;SDS011;10974;51.034;3.744;2022-07-15T14:04:35;0.70;;;0.70;;
21624;SDS011;10974;51.034;3.744;2022-07-15T14:07:01;0.70;;;0.70;;
21624;SDS011;10974;51.034;3.744;2022-07-15T14:09:26;0.70;;;0.70;;
21624;SDS011;10974;51.034;3.744;2022-07-15T14:11:53;0.63;;;0.60;;
21624;SDS011;10974;51.034;3.744;2022-07-15T14:14:18;0.70;;;0.70;;
21624;SDS011;10974;51.034;3.744;2022-07-15T14:16:44;0.80;;;0.80;;
21624;SDS011;10974;51.034;3.744;2022-07-15T14:19:10;1.00;;;0.80;;
21624;SDS011;10974;51.034;3.744;2022-07-15T14:21:36;0.70;;;0.70;;
21624;SDS011;10974;51.034;3.744;2022-07-15T14:24:02;0.70;;;0.70;;
21624;SDS011;10974;51.034;3.744;2022-07-15T14:26:27;0.70;;;0.70;;
21624;SDS011;10974;51.034;3.744;2022-07-15T14:28:53;0.60;;;0.60;;
21624;SDS011;10974;51.034;3.744;2022-07-15T14:31:19;0.70;;;0.70;;
21624;SDS011;10974;51.034;3.744;2022-07-15T14:33:45;0.77;;;0.77;;
21624;SDS011;10974;51.034;3.744;2022-07-15T14:36:11;0.70;;;0.70;;
21624;SDS011;10974;51.034;3.744;2022-07-15T14:38:38;0.70;;;0.70;;
21624;SDS011;10974;51.034;3.744;2022-07-15T14:41:04;0.63;;;0.63;;
21624;SDS011;10974;51.034;3.744;2022-07-15T14:43:31;0.60;;;0.60;;
21624;SDS011;10974;51.034;3.744;2022-07-15T14:45:57;0.70;;;0.70;;
21624;SDS011;10974;51.034;3.744;2022-07-15T14:48:23;0.60;;;0.60;;
21624;SDS011;10974;51.034;3.744;2022-07-15T14:50:49;1.70;;;0.77;;
21624;SDS011;10974;51.034;3.744;2022-07-15T14:53:17;0.70;;;0.70;;
21624;SDS011;10974;51.034;3.744;2022-07-15T14:55:43;0.97;;;0.80;;
21624;SDS011;10974;51.034;3.744;2022-07-15T14:58:09;0.70;;;0.70;;
21624;SDS011;10974;51.034;3.744;2022-07-15T15:00:37;0.70;;;0.70;;
21624;SDS011;10974;51.034;3.744;2022-07-15T15:03:04;0.60;;;0.60;;
21624;SDS011;10974;51.034;3.744;2022-07-15T15:05:29;0.70;;;0.70;;
21624;SDS011;10974;51.034;3.744;2022-07-15T15:07:55;0.60;;;0.60;;
21624;SDS011;10974;51.034;3.744;2022-07-15T15:10:21;0.80;;;0.80;;
21624;SDS011;10974;51.034;3.744;2022-07-15T15:12:47;0.70;;;0.70;;
21624;SDS011;10974;51.034;3.744;2022-07-15T15:15:13;0.70;;;0.70;;
21624;SDS011;10974;51.034;3.744;2022-07-15T15:17:39;1.53;;;1.33;;
21624;SDS011;10974;51.034;3.744;2022-07-15T15:20:05;0.87;;;0.87;;
21624;SDS011;10974;51.034;3.744;2022-07-15T15:22:35;0.63;;;0.63;;
21624;SDS011;10974;51.034;3.744;2022-07-15T15:25:01;0.60;;;0.60;;
21624;SDS011;10974;51.034;3.744;2022-07-15T15:27:28;0.60;;;0.60;;
21624;SDS011;10974;51.034;3.744;2022-07-15T15:29:54;0.60;;;0.60;;
21624;SDS011;10974;51.034;3.744;2022-07-15T15:32:20;0.57;;;0.57;;
21624;SDS011;10974;51.034;3.744;2022-07-15T15:34:46;0.60;;;0.60;;
21624;SDS011;10974;51.034;3.744;2022-07-15T15:37:12;0.60;;;0.60;;
21624;SDS011;10974;51.034;3.744;2022-07-15T15:39:38;0.60;;;0.60;;
21624;SDS011;10974;51.034;3.744;2022-07-15T15:42:04;0.67;;;0.67;;
21624;SDS011;10974;51.034;3.744;2022-07-15T15:44:30;0.80;;;0.80;;
21624;SDS011;10974;51.034;3.744;2022-07-15T15:46:56;0.60;;;0.60;;
21624;SDS011;10974;51.034;3.744;2022-07-15T15:49:22;0.80;;;0.80;;